Time;durP1;ratioP1;P1;durP2;ratioP2;P2;SDS_P1;SDS_P2;PMS_P1;PMS_P2;Temp;Humidity;BMP_temperature;BMP_pressure;BME280_temperature;BME280_humidity;BME280_pressure;Samples;Min_cycle;Max_cycle;Signal;HPM_P1;HPM_P2
2022/04/14 00:00:37;;;;;;;13.10;7.88;;;;;;;12.26;100.00;96805.22;5025897;28;20435;-71
2022/04/14 00:03:02;;;;;;;16.52;7.60;;;;;;;12.15;100.00;96814.22;5029623;28;20037;-71
2022/04/14 00:05:28;;;;;;;19.13;8.30;;;;;;;12.17;100.00;96812.09;5027144;28;20045;-70
2022/04/14 00:07:53;;;;;;;16.45;8.13;;;;;;;12.16;100.00;96821.22;5028331;28;20075;-70
2022/04/14 00:10:19;;;;;;;19.38;8.43;;;;;;;12.08;100.00;96813.59;5026472;28;20036;-70
2022/04/14 00:12:45;;;;;;;18.02;8.80;;;;;;;11.99;100.00;96814.03;5026256;28;20041;-71
2022/04/14 00:15:11;;;;;;;16.58;9.00;;;;;;;11.99;100.00;96814.03;5023959;28;20033;-71
2022/04/14 00:17:37;;;;;;;17.45;8.43;;;;;;;11.99;100.00;96823.97;5025952;28;20043;-69
2022/04/14 00:20:06;;;;;;;16.67;8.52;;;;;;;11.96;100.00;96813.72;5025794;28;20034;-69
2022/04/14 00:22:32;;;;;;;14.07;8.65;;;;;;;11.86;100.00;96809.03;5027267;28;20156;-71
2022/04/14 00:24:57;;;;;;;17.20;8.98;;;;;;;11.90;100.00;96810.13;5027269;28;20409;-70
2022/04/14 00:27:23;;;;;;;18.35;9.38;;;;;;;11.79;100.00;96805.69;5040435;28;20351;-70
2022/04/14 00:29:49;;;;;;;21.65;9.52;;;;;;;11.80;100.00;96807.34;5025937;28;20633;-71
2022/04/14 00:32:15;;;;;;;18.00;9.10;;;;;;;11.79;100.00;96797.63;5025743;28;20052;-70
2022/04/14 00:34:41;;;;;;;15.05;8.20;;;;;;;11.79;100.00;96811.03;5027646;28;20044;-70
2022/04/14 00:37:09;;;;;;;16.08;8.35;;;;;;;11.82;100.00;96809.75;5025817;28;20049;-70
2022/04/14 00:39:35;;;;;;;20.15;8.52;;;;;;;11.71;100.00;96803.44;5024468;28;20037;-69
2022/04/14 00:42:01;;;;;;;17.60;9.43;;;;;;;11.79;100.00;96800.31;5023420;28;20539;-71
2022/04/14 00:44:26;;;;;;;16.10;8.98;;;;;;;11.77;100.00;96807.81;5024739;28;20044;-70
2022/04/14 00:46:52;;;;;;;18.92;10.02;;;;;;;11.72;100.00;96813.91;5025780;28;20025;-70
2022/04/14 00:49:19;;;;;;;14.95;8.65;;;;;;;11.69;100.00;96810.91;5024310;28;20426;-70
2022/04/14 00:51:45;;;;;;;21.80;9.57;;;;;;;11.63;100.00;96803.84;5024238;28;20049;-70
2022/04/14 00:54:10;;;;;;;18.42;9.73;;;;;;;11.61;100.00;96814.00;5026532;28;20373;-71
2022/04/14 00:56:36;;;;;;;21.50;10.45;;;;;;;11.61;100.00;96811.34;5024765;28;20132;-70
2022/04/14 00:59:01;;;;;;;18.25;11.68;;;;;;;11.49;100.00;96810.59;5023357;28;20399;-71
2022/04/14 01:01:27;;;;;;;22.25;10.90;;;;;;;11.49;100.00;96811.41;5025210;28;20183;-69
2022/04/14 01:03:53;;;;;;;25.02;11.30;;;;;;;11.48;100.00;96809.78;5026925;28;20408;-70
2022/04/14 01:06:21;;;;;;;18.42;10.90;;;;;;;11.36;100.00;96814.41;5023543;28;20134;-71
2022/04/14 01:09:16;;;;;;;23.48;11.10;;;;;;;11.28;100.00;96818.31;5024367;28;20072;-70
2022/04/14 01:11:35;;;;;;;26.35;11.38;;;;;;;11.32;100.00;96815.97;5024810;28;20029;-70
2022/04/14 01:14:03;;;;;;;19.63;10.98;;;;;;;11.40;100.00;96812.88;5024535;28;20384;-71
2022/04/14 01:16:28;;;;;;;23.48;12.30;;;;;;;11.44;100.00;96811.34;5023882;28;20224;-70
2022/04/14 01:18:54;;;;;;;22.98;11.30;;;;;;;11.47;100.00;96810.06;5022356;28;20388;-70
2022/04/14 01:21:21;;;;;;;20.20;10.93;;;;;;;11.48;100.00;96817.03;5025707;28;20040;-70
2022/04/14 01:23:48;;;;;;;22.42;11.85;;;;;;;11.44;100.00;96817.53;5024646;28;20039;-70
2022/04/14 01:26:14;;;;;;;19.40;10.95;;;;;;;11.43;100.00;96812.38;5025054;28;20495;-70
2022/04/14 01:28:39;;;;;;;19.65;10.48;;;;;;;11.48;100.00;96811.66;5020766;28;20041;-70
2022/04/14 01:31:05;;;;;;;23.58;10.73;;;;;;;11.51;100.00;96816.53;5024420;28;20041;-70
2022/04/14 01:33:30;;;;;;;18.42;9.88;;;;;;;11.56;100.00;96814.75;5025394;28;20065;-71
2022/04/14 01:35:56;;;;;;;19.23;10.23;;;;;;;11.52;100.00;96818.16;5025002;28;20044;-70
2022/04/14 01:38:21;;;;;;;18.98;10.02;;;;;;;11.47;100.00;96820.75;5023243;28;20952;-71
2022/04/14 01:40:47;;;;;;;19.40;9.30;;;;;;;11.52;100.00;96818.97;5024951;28;20511;-70
2022/04/14 01:43:12;;;;;;;25.30;11.07;;;;;;;11.59;100.00;96816.91;5023767;28;20036;-70
2022/04/14 01:45:38;;;;;;;17.75;9.98;;;;;;;11.67;100.00;96813.00;5024358;28;20032;-70
2022/04/14 01:48:03;;;;;;;17.00;10.13;;;;;;;11.69;100.00;96824.31;5023854;28;20025;-71
2022/04/14 01:50:29;;;;;;;26.55;11.38;;;;;;;11.71;100.00;96817.63;5024598;28;20547;-71
2022/04/14 01:52:54;;;;;;;23.42;10.90;;;;;;;11.73;100.00;96820.06;5024565;28;20880;-71
2022/04/14 01:55:20;;;;;;;20.23;10.85;;;;;;;11.70;100.00;96828.63;5025384;28;20045;-70
2022/04/14 01:57:46;;;;;;;19.88;10.13;;;;;;;11.70;100.00;96825.94;5024353;28;20033;-70
2022/04/14 02:00:14;;;;;;;21.17;10.80;;;;;;;11.72;100.00;96821.13;5024424;28;20136;-70
2022/04/14 02:02:40;;;;;;;19.92;12.05;;;;;;;11.70;100.00;96815.22;5024269;28;20166;-70
2022/04/14 02:05:06;;;;;;;21.05;12.35;;;;;;;11.64;100.00;96818.88;5024028;28;20045;-70
2022/04/14 02:07:34;;;;;;;22.08;11.85;;;;;;;11.63;100.00;96819.94;5025966;28;20037;-70
2022/04/14 02:09:59;;;;;;;21.85;11.35;;;;;;;11.69;100.00;96814.41;5026805;28;20049;-70
2022/04/14 02:12:25;;;;;;;23.40;12.00;;;;;;;11.69;100.00;96819.75;5025075;28;20033;-70
2022/04/14 02:14:52;;;;;;;23.90;12.20;;;;;;;11.66;100.00;96822.91;5032848;28;20037;-70
2022/04/14 02:17:17;;;;;;;24.73;14.02;;;;;;;11.65;100.00;96809.75;5020118;28;20034;-71
2022/04/14 02:19:43;;;;;;;23.33;12.68;;;;;;;11.57;100.00;96813.69;5022970;28;20096;-71
2022/04/14 02:22:08;;;;;;;26.73;13.52;;;;;;;11.53;100.00;96814.44;5026648;28;20099;-70
2022/04/14 02:24:33;;;;;;;24.13;13.68;;;;;;;11.48;100.00;96817.03;5022137;28;20138;-70
2022/04/14 02:26:59;;;;;;;28.23;13.23;;;;;;;11.39;100.00;96819.31;5023847;28;20351;-71
2022/04/14 02:29:24;;;;;;;26.45;14.15;;;;;;;11.33;100.00;96810.38;5020707;28;20544;-70
2022/04/14 02:31:52;;;;;;;27.13;14.38;;;;;;;11.37;100.00;96814.19;5020002;28;20119;-70
2022/04/14 02:34:17;;;;;;;29.17;15.48;;;;;;;11.42;100.00;96816.13;5021554;28;20110;-71
2022/04/14 02:36:43;;;;;;;31.85;15.77;;;;;;;11.40;100.00;96819.06;5022805;28;20053;-70
2022/04/14 02:39:09;;;;;;;24.95;15.45;;;;;;;11.42;100.00;96826.84;5033863;28;20036;-69
2022/04/14 02:41:35;;;;;;;27.88;17.35;;;;;;;11.42;100.00;96824.97;5025807;28;20044;-70
2022/04/14 02:44:00;;;;;;;33.15;17.80;;;;;;;11.44;100.00;96820.22;5021733;28;20041;-71
2022/04/14 02:46:26;;;;;;;41.08;19.10;;;;;;;11.46;100.00;96825.31;5023721;28;20033;-71
2022/04/14 02:48:54;;;;;;;32.00;18.33;;;;;;;11.47;100.00;96824.25;5024166;28;20385;-70
2022/04/14 02:51:20;;;;;;;34.08;18.80;;;;;;;11.33;100.00;96821.09;5021618;28;20388;-71
2022/04/14 02:53:45;;;;;;;34.65;18.67;;;;;;;11.36;100.00;96828.66;5026539;28;20039;-70
2022/04/14 02:56:11;;;;;;;43.83;24.30;;;;;;;11.34;100.00;96814.66;5024234;28;20446;-69
2022/04/14 02:58:37;;;;;;;48.33;25.02;;;;;;;11.28;100.00;96826.34;5025017;28;20028;-70
2022/04/14 03:01:03;;;;;;;53.10;24.38;;;;;;;11.20;100.00;96832.13;5023459;28;20053;-71
2022/04/14 03:03:28;;;;;;;43.28;24.88;;;;;;;11.15;100.00;96826.69;5021221;28;20037;-69
2022/04/14 03:05:54;;;;;;;45.80;23.42;;;;;;;11.25;100.00;96840.25;5025551;28;20114;-71
2022/04/14 03:08:19;;;;;;;50.47;25.50;;;;;;;11.27;100.00;96824.75;5023209;28;20033;-71
2022/04/14 03:10:45;;;;;;;51.53;25.20;;;;;;;11.28;100.00;96831.72;5025313;28;20063;-71
2022/04/14 03:13:11;;;;;;;50.92;25.77;;;;;;;11.20;100.00;96823.28;5023062;28;20120;-70
2022/04/14 03:15:36;;;;;;;46.97;25.25;;;;;;;11.11;100.00;96823.69;5022771;28;20037;-70
2022/04/14 03:18:02;;;;;;;47.97;24.23;;;;;;;11.04;100.00;96827.56;5023668;28;20083;-70
2022/04/14 03:20:28;;;;;;;48.78;26.33;;;;;;;10.94;100.00;96824.72;5032114;28;20053;-71
2022/04/14 03:22:55;;;;;;;52.85;27.55;;;;;;;10.99;100.00;96816.78;5023358;28;20037;-70
2022/04/14 03:25:21;;;;;;;49.85;26.45;;;;;;;10.97;100.00;96826.91;5024395;28;20037;-70
2022/04/14 03:27:46;;;;;;;52.55;26.77;;;;;;;10.97;100.00;96818.88;5024595;28;20751;-70
2022/04/14 03:30:12;;;;;;;52.85;27.30;;;;;;;10.91;100.00;96811.84;5022927;28;20041;-70
2022/04/14 03:32:45;;;;;;;47.67;24.98;;;;;;;11.02;100.00;96824.31;5023780;28;20038;-71
2022/04/14 03:35:11;;;;;;;46.97;26.15;;;;;;;11.07;100.00;96830.59;5025556;28;20038;-71
2022/04/14 03:37:37;;;;;;;57.40;28.13;;;;;;;11.06;100.00;96815.59;5024952;28;20040;-69
2022/04/14 03:40:04;;;;;;;53.80;27.00;;;;;;;11.18;100.00;96826.19;5024839;28;20205;-69
2022/04/14 03:42:30;;;;;;;51.70;26.67;;;;;;;11.29;100.00;96816.47;5023297;28;20045;-70
2022/04/14 03:44:55;;;;;;;52.67;27.70;;;;;;;11.23;100.00;96818.25;5030904;28;20040;-71
2022/04/14 03:47:21;;;;;;;53.17;27.02;;;;;;;11.25;100.00;96824.19;5022569;28;20430;-70
2022/04/14 03:49:46;;;;;;;56.53;28.92;;;;;;;11.25;100.00;96821.50;5020895;28;20653;-71
2022/04/14 03:52:12;;;;;;;53.58;26.90;;;;;;;11.27;100.00;96824.75;5023663;28;20060;-70
2022/04/14 03:54:37;;;;;;;53.00;26.95;;;;;;;11.31;100.00;96822.41;5025204;28;20037;-70
2022/04/14 03:57:03;;;;;;;48.88;25.52;;;;;;;11.35;100.00;96821.66;5023488;28;20060;-69
2022/04/14 03:59:28;;;;;;;51.15;26.40;;;;;;;11.38;100.00;96831.09;5022170;28;20836;-70
2022/04/14 04:01:54;;;;;;;57.22;26.70;;;;;;;11.32;100.00;96829.38;5023189;28;20045;-71
2022/04/14 04:04:19;;;;;;;49.25;26.55;;;;;;;11.28;100.00;96823.69;5023905;28;20037;-69
2022/04/14 04:06:45;;;;;;;49.55;26.08;;;;;;;11.28;100.00;96825.53;5025160;28;20053;-70
2022/04/14 04:09:11;;;;;;;57.50;27.25;;;;;;;11.33;100.00;96825.63;5022554;28;20400;-71
2022/04/14 04:11:37;;;;;;;55.53;25.48;;;;;;;11.36;100.00;96833.19;5023058;28;20073;-70
2022/04/14 04:14:02;;;;;;;53.00;24.17;;;;;;;11.29;100.00;96822.66;5022695;28;20662;-70
2022/04/14 04:16:28;;;;;;;54.35;25.70;;;;;;;11.25;100.00;96826.84;5021527;28;20030;-70
2022/04/14 04:18:53;;;;;;;53.20;25.70;;;;;;;11.30;100.00;96831.50;5022202;28;20037;-71
2022/04/14 04:21:18;;;;;;;54.10;25.92;;;;;;;11.29;100.00;96840.59;5022235;28;20389;-70
2022/04/14 04:23:44;;;;;;;56.30;26.50;;;;;;;11.24;100.00;96837.81;5021724;28;20484;-69
2022/04/14 04:26:09;;;;;;;58.13;27.20;;;;;;;11.24;100.00;96843.19;5025817;28;20138;-70
2022/04/14 04:28:35;;;;;;;55.55;27.35;;;;;;;11.17;100.00;96846.00;5026617;28;20037;-70
2022/04/14 04:31:00;;;;;;;55.42;26.73;;;;;;;11.08;100.00;96840.25;5025064;28;20041;-70
2022/04/14 04:33:26;;;;;;;53.33;25.92;;;;;;;11.15;100.00;96850.81;5027166;28;20049;-71
2022/04/14 04:35:52;;;;;;;59.80;27.83;;;;;;;11.19;100.00;96859.97;5025526;28;20580;-70
2022/04/14 04:38:19;;;;;;;59.72;27.95;;;;;;;11.16;100.00;96852.44;5024931;28;20272;-69
2022/04/14 04:40:44;;;;;;;49.97;25.90;;;;;;;11.16;100.00;96855.91;5026926;28;20044;-70
2022/04/14 04:43:10;;;;;;;57.05;27.00;;;;;;;11.17;100.00;96856.72;5025961;28;20033;-71
2022/04/14 04:45:36;;;;;;;57.90;25.88;;;;;;;11.21;100.00;96857.06;5027398;28;20293;-71
2022/04/14 04:48:04;;;;;;;55.55;26.45;;;;;;;11.20;100.00;96858.91;5025303;28;20345;-70
2022/04/14 04:50:30;;;;;;;64.18;28.83;;;;;;;10.99;100.00;96873.84;5025617;28;20052;-70
2022/04/14 04:52:55;;;;;;;53.35;26.70;;;;;;;11.06;100.00;96866.47;5028142;28;20037;-70
2022/04/14 04:55:21;;;;;;;63.60;29.02;;;;;;;11.12;100.00;96868.16;5026637;28;20044;-70
2022/04/14 04:57:46;;;;;;;50.58;26.05;;;;;;;11.16;100.00;96869.31;5026071;28;20045;-71
2022/04/14 05:00:12;;;;;;;53.00;25.95;;;;;;;11.18;100.00;96885.13;5025234;28;20068;-70
2022/04/14 05:02:38;;;;;;;51.78;24.48;;;;;;;11.20;100.00;96879.53;5026677;28;20042;-71
2022/04/14 05:05:04;;;;;;;58.42;27.25;;;;;;;11.25;100.00;96871.59;5024633;28;20531;-71
2022/04/14 05:07:30;;;;;;;49.42;28.80;;;;;;;11.31;100.00;96882.16;5027814;28;20048;-70
2022/04/14 05:09:55;;;;;;;60.90;28.15;;;;;;;11.34;100.00;96880.84;5022704;28;20048;-71
2022/04/14 05:12:20;;;;;;;55.30;27.30;;;;;;;11.33;100.00;96882.72;5025704;28;20155;-70
2022/04/14 05:14:46;;;;;;;58.63;28.77;;;;;;;11.42;100.00;96889.28;5025809;28;20041;-70
2022/04/14 05:17:11;;;;;;;59.00;27.48;;;;;;;11.46;100.00;96891.50;5057835;28;20037;-71
2022/04/14 05:19:37;;;;;;;61.47;29.23;;;;;;;11.46;100.00;96899.53;5025750;28;20072;-70
2022/04/14 05:22:02;;;;;;;59.08;27.48;;;;;;;11.38;100.00;96895.38;5025042;28;20060;-71
2022/04/14 05:24:31;;;;;;;57.70;28.98;;;;;;;11.46;100.00;96892.31;5022995;28;20033;-70
2022/04/14 05:26:57;;;;;;;58.88;28.27;;;;;;;11.35;100.00;96896.66;5027143;28;20385;-70
2022/04/14 05:29:23;;;;;;;64.75;29.27;;;;;;;11.34;100.00;96888.88;5055808;28;20076;-70
2022/04/14 05:31:48;;;;;;;68.47;30.38;;;;;;;11.24;100.00;96883.34;5023846;28;20049;-70
2022/04/14 05:34:14;;;;;;;85.45;33.08;;;;;;;11.02;100.00;96886.72;5024161;28;20060;-69
2022/04/14 05:36:39;;;;;;;67.07;32.15;;;;;;;11.14;100.00;96897.41;5027197;28;20492;-70
2022/04/14 05:39:05;;;;;;;58.60;28.60;;;;;;;11.22;100.00;96894.31;5025699;28;20445;-70
2022/04/14 05:41:32;;;;;;;61.78;29.02;;;;;;;11.32;100.00;96896.34;5022841;28;20037;-69
2022/04/14 05:43:57;;;;;;;60.92;28.38;;;;;;;11.40;100.00;96890.59;5023523;28;20061;-70
2022/04/14 05:46:23;;;;;;;56.25;27.40;;;;;;;11.46;100.00;96897.66;5024108;28;20116;-69
2022/04/14 05:48:49;;;;;;;62.35;28.42;;;;;;;11.48;100.00;96905.47;5024884;28;20061;-70
2022/04/14 05:51:15;;;;;;;59.92;27.17;;;;;;;11.54;100.00;96907.16;5024888;28;20041;-69
2022/04/14 05:53:41;;;;;;;56.13;27.20;;;;;;;11.60;100.00;96900.84;5026281;28;20033;-69
2022/04/14 05:56:07;;;;;;;56.00;27.90;;;;;;;11.63;100.00;96903.03;5022390;28;20042;-70
2022/04/14 05:58:32;;;;;;;62.95;28.50;;;;;;;11.67;100.00;96910.34;5024221;28;20128;-70
2022/04/14 06:00:58;;;;;;;67.50;27.27;;;;;;;11.71;100.00;96908.78;5024843;28;20462;-70
2022/04/14 06:03:25;;;;;;;60.88;28.15;;;;;;;11.71;100.00;96911.47;5024390;28;20083;-71
2022/04/14 06:05:50;;;;;;;54.53;26.30;;;;;;;11.64;100.00;96910.81;5027910;28;20039;-70
2022/04/14 06:08:16;;;;;;;53.42;25.40;;;;;;;11.58;100.00;96911.78;5024781;28;20458;-70
2022/04/14 06:10:41;;;;;;;59.45;27.95;;;;;;;11.61;100.00;96922.03;5023050;28;20049;-69
2022/04/14 06:13:07;;;;;;;57.40;28.55;;;;;;;11.60;100.00;96922.28;5026190;28;20334;-70
2022/04/14 06:15:32;;;;;;;62.78;28.05;;;;;;;11.57;100.00;96923.56;5021319;28;20072;-70
2022/04/14 06:17:58;;;;;;;58.00;25.58;;;;;;;11.57;100.00;96920.88;5024497;28;20152;-70
2022/04/14 06:20:24;;;;;;;55.45;25.55;;;;;;;11.56;100.00;96923.81;5021449;28;20476;-70
2022/04/14 06:22:49;;;;;;;55.53;26.17;;;;;;;11.53;100.00;96925.13;5023590;28;20488;-69
2022/04/14 06:25:17;;;;;;;53.10;24.05;;;;;;;11.55;100.00;96923.00;5024394;28;20864;-70
2022/04/14 06:27:46;;;;;;;60.80;24.40;;;;;;;11.54;100.00;96940.16;5024325;28;20030;-70
2022/04/14 06:30:13;;;;;;;51.13;25.42;;;;;;;11.52;100.00;96934.22;5026184;28;20056;-71
2022/04/14 06:32:39;;;;;;;57.78;25.08;;;;;;;11.54;100.00;96932.09;5028792;28;20550;-70
2022/04/14 06:35:15;;;;;;;55.30;24.67;;;;;;;11.57;100.00;96936.16;5023371;28;20422;-69
2022/04/14 06:37:40;;;;;;;55.72;24.40;;;;;;;11.60;100.00;96938.38;5026274;28;20143;-71
2022/04/14 06:40:07;;;;;;;54.92;24.92;;;;;;;11.63;100.00;96938.69;5026067;28;20048;-71
2022/04/14 06:42:32;;;;;;;49.35;22.23;;;;;;;11.64;100.00;96944.84;5024613;28;20041;-71
2022/04/14 06:44:59;;;;;;;45.67;22.27;;;;;;;11.62;100.00;96944.28;5025223;28;20072;-71
2022/04/14 06:47:28;;;;;;;47.45;22.92;;;;;;;11.55;100.00;96951.69;5024822;28;20041;-71
2022/04/14 06:49:54;;;;;;;46.85;22.75;;;;;;;11.54;100.00;96950.06;5024151;28;20037;-70
2022/04/14 06:52:20;;;;;;;47.28;22.98;;;;;;;11.51;100.00;96945.97;5028242;28;20079;-70
2022/04/14 06:54:46;;;;;;;43.53;20.48;;;;;;;11.53;100.00;96951.13;5024932;28;20036;-69
2022/04/14 06:57:11;;;;;;;42.70;20.60;;;;;;;11.51;100.00;96945.97;5023832;28;20546;-70
2022/04/14 06:59:37;;;;;;;44.72;21.92;;;;;;;11.50;100.00;96951.59;5025565;28;20461;-69
2022/04/14 07:02:04;;;;;;;47.55;21.88;;;;;;;11.56;100.00;96947.94;5025677;28;20053;-70
2022/04/14 07:04:29;;;;;;;42.70;19.85;;;;;;;11.64;100.00;96950.22;5026113;28;20041;-70
2022/04/14 07:06:55;;;;;;;46.05;21.10;;;;;;;11.67;100.00;96947.88;5026563;28;20365;-70
2022/04/14 07:09:21;;;;;;;46.90;20.92;;;;;;;11.76;100.00;96950.97;5026664;28;20040;-70
2022/04/14 07:11:47;;;;;;;41.58;18.58;;;;;;;11.75;100.00;96952.03;5024276;28;20128;-70
2022/04/14 07:14:14;;;;;;;45.80;20.17;;;;;;;11.70;100.00;96960.78;5024432;28;20471;-70
2022/04/14 07:16:41;;;;;;;46.40;19.65;;;;;;;11.73;100.00;96959.47;5031883;28;20387;-71
2022/04/14 07:19:07;;;;;;;41.78;19.20;;;;;;;11.70;100.00;96970.69;5021620;28;20038;-71
2022/04/14 07:21:32;;;;;;;37.03;18.42;;;;;;;11.65;100.00;96968.72;5024413;28;20091;-71
2022/04/14 07:23:57;;;;;;;43.17;17.90;;;;;;;11.62;100.00;96963.88;5023594;28;20037;-71
2022/04/14 07:26:23;;;;;;;37.50;16.90;;;;;;;11.47;100.00;96965.47;5027717;28;20543;-70
2022/04/14 07:28:48;;;;;;;36.60;18.83;;;;;;;11.37;100.00;96958.88;5023252;28;20033;-70
2022/04/14 07:31:14;;;;;;;36.00;18.38;;;;;;;11.35;100.00;96955.63;5022754;28;20041;-71
2022/04/14 07:33:41;;;;;;;38.72;18.33;;;;;;;11.51;100.00;96959.38;5024481;28;20522;-71
2022/04/14 07:36:07;;;;;;;39.95;19.02;;;;;;;11.64;100.00;96947.53;5023613;28;20076;-70
2022/04/14 07:38:32;;;;;;;38.40;18.33;;;;;;;11.51;100.00;96948.66;5025787;28;20033;-70
2022/04/14 07:40:58;;;;;;;40.45;18.38;;;;;;;11.53;100.00;96946.56;5028559;28;20052;-71
2022/04/14 07:43:23;;;;;;;36.00;16.75;;;;;;;11.55;100.00;96946.31;5023605;28;20036;-70
2022/04/14 07:45:49;;;;;;;34.42;16.58;;;;;;;11.65;100.00;96955.31;5026804;28;20123;-70
2022/04/14 07:48:21;;;;;;;34.53;16.83;;;;;;;11.65;100.00;96952.66;5022013;28;20104;-71
2022/04/14 07:50:48;;;;;;;36.30;18.02;;;;;;;11.76;100.00;96964.38;5023907;28;20045;-70
2022/04/14 07:53:13;;;;;;;39.88;18.20;;;;;;;11.81;100.00;96969.81;5025248;28;20041;-71
2022/04/14 07:55:39;;;;;;;39.15;17.52;;;;;;;11.87;100.00;96979.59;5022441;28;20075;-70
2022/04/14 07:58:09;;;;;;;38.60;16.83;;;;;;;11.95;100.00;96971.13;5027665;28;20107;-70
2022/04/14 08:00:35;;;;;;;37.35;16.77;;;;;;;12.09;100.00;96976.16;5027962;28;20472;-70
2022/04/14 08:03:02;;;;;;;34.55;16.15;;;;;;;12.18;100.00;96980.06;5027811;28;20029;-70
2022/04/14 08:05:32;;;;;;;28.17;14.85;;;;;;;12.19;100.00;96981.69;5027622;28;20037;-71
2022/04/14 08:07:58;;;;;;;34.28;15.80;;;;;;;12.18;100.00;96980.06;5030336;28;20467;-70
2022/04/14 08:10:23;;;;;;;32.58;16.73;;;;;;;12.26;100.00;96985.00;5026625;28;20464;-71
2022/04/14 08:12:49;;;;;;;33.42;15.45;;;;;;;12.35;100.00;96993.44;5030077;28;20068;-71
2022/04/14 08:15:15;;;;;;;30.52;14.95;;;;;;;12.34;100.00;96991.81;5026438;28;20041;-71
2022/04/14 08:17:42;;;;;;;36.50;15.18;;;;;;;12.34;100.00;96998.00;5027756;28;20033;-70
2022/04/14 08:20:10;;;;;;;31.73;16.13;;;;;;;12.37;100.00;96991.31;5027902;28;20033;-70
2022/04/14 08:22:49;;;;;;;35.97;15.88;;;;;;;12.56;100.00;97003.41;5025598;28;20595;-71
2022/04/14 08:25:35;;;;;;;30.80;15.55;;;;;;;12.77;100.00;97007.19;5026574;28;20777;-71
2022/04/14 08:28:03;;;;;;;30.38;13.65;;;;;;;12.79;100.00;97007.75;5000296;28;21041;-71
2022/04/14 08:30:31;;;;;;;26.35;14.77;;;;;;;12.83;100.00;97006.19;5024241;28;20544;-71
2022/04/14 08:32:59;;;;;;;32.80;15.13;;;;;;;12.86;100.00;97003.00;5024911;28;20056;-71
2022/04/14 08:35:26;;;;;;;30.20;15.30;;;;;;;12.88;100.00;97000.88;5035401;28;20562;-71
2022/04/14 08:37:51;;;;;;;33.05;15.38;;;;;;;12.92;100.00;97006.56;5031133;28;20476;-71
2022/04/14 08:40:21;;;;;;;32.45;15.32;;;;;;;12.87;100.00;97004.63;5025669;28;20037;-70
2022/04/14 08:42:53;;;;;;;32.67;15.65;;;;;;;12.91;100.00;96999.56;5026640;28;20490;-71
2022/04/14 08:45:23;;;;;;;37.40;15.15;;;;;;;12.70;100.00;96998.50;5026133;28;20103;-71
2022/04/14 08:47:50;;;;;;;32.35;13.10;;;;;;;12.78;100.00;96987.34;5026777;28;20041;-72
2022/04/14 08:50:16;;;;;;;25.50;13.82;;;;;;;12.94;100.00;96993.72;5024963;28;20052;-70
2022/04/14 08:52:42;;;;;;;26.90;13.48;;;;;;;12.92;100.00;97004.72;5027330;28;20391;-71
2022/04/14 08:55:11;;;;;;;28.40;13.02;;;;;;;12.80;100.00;97001.31;5023154;28;20038;-70
2022/04/14 08:57:38;;;;;;;28.67;14.45;;;;;;;12.85;100.00;96996.03;5024781;28;20092;-70
2022/04/14 09:00:06;;;;;;;29.63;14.13;;;;;;;12.76;100.00;96997.50;5024265;28;20037;-71
2022/04/14 09:02:34;;;;;;;28.80;12.90;;;;;;;12.85;100.00;96996.03;5025085;28;20492;-71
2022/04/14 09:05:00;;;;;;;28.40;12.52;;;;;;;12.97;100.00;96994.00;5023149;28;20143;-71
2022/04/14 09:07:27;;;;;;;29.55;13.15;;;;;;;13.11;100.00;96995.25;5026569;28;20123;-71
2022/04/14 09:09:52;;;;;;;26.08;12.55;;;;;;;13.33;100.00;96986.38;5025351;28;20484;-71
2022/04/14 09:12:18;;;;;;;22.70;11.93;;;;;;;13.35;100.00;96992.31;5026237;28;20398;-70
2022/04/14 09:14:45;;;;;;;31.83;13.52;;;;;;;13.52;100.00;96990.34;5024499;28;20037;-70
2022/04/14 09:17:11;;;;;;;25.88;12.57;;;;;;;13.76;100.00;96998.09;5025406;28;20048;-70
2022/04/14 09:19:37;;;;;;;29.25;13.45;;;;;;;13.88;100.00;96998.75;5026940;28;20061;-70
2022/04/14 09:22:08;;;;;;;22.88;11.00;;;;;;;14.00;100.00;96991.28;5024674;28;20209;-69
2022/04/14 09:24:55;;;;;;;18.63;9.25;;;;;;;14.05;100.00;96998.59;5026548;28;20486;-71
2022/04/14 09:27:41;;;;;;;23.05;9.18;;;;;;;13.79;100.00;97006.47;5025730;28;20679;-71
2022/04/14 09:30:11;;;;;;;18.27;9.80;;;;;;;13.59;100.00;97003.56;4999565;28;20049;-70
2022/04/14 09:32:39;;;;;;;20.08;8.98;;;;;;;13.89;100.00;97009.25;5034237;28;20548;-71
2022/04/14 09:35:16;;;;;;;17.45;8.52;;;;;;;13.88;100.00;97010.31;5024274;28;20060;-71
2022/04/14 09:37:42;;;;;;;11.55;6.13;;;;;;;13.75;100.00;97009.91;5026009;28;20483;-71
2022/04/14 09:40:09;;;;;;;9.07;4.47;;;;;;;13.57;100.00;97009.22;5025253;28;20033;-71
2022/04/14 09:42:37;;;;;;;7.93;3.35;;;;;;;13.81;100.00;97004.31;5025156;28;20037;-71
2022/04/14 09:45:19;;;;;;;9.52;3.00;;;;;;;14.72;100.00;96993.44;5022648;28;20025;-70
2022/04/14 09:47:45;;;;;;;7.60;3.30;;;;;;;15.09;100.00;96991.69;5028121;28;20404;-71
2022/04/14 09:50:39;;;;;;;7.45;3.00;;;;;;;14.99;100.00;96992.47;5030226;28;20259;-70
2022/04/14 09:53:13;;;;;;;9.25;4.43;;;;;;;14.89;100.00;96993.22;5023824;28;20050;-71
2022/04/14 09:55:50;;;;;;;8.80;3.72;;;;;;;15.09;100.00;96989.78;5027751;28;20042;-70
2022/04/14 09:58:18;;;;;;;9.15;4.72;;;;;;;15.15;100.00;96996.84;5024067;28;20041;-71
2022/04/14 10:00:45;;;;;;;19.08;8.57;;;;;;;14.66;100.00;96999.84;5026349;28;20332;-71
2022/04/14 10:03:15;;;;;;;20.02;10.23;;;;;;;14.53;100.00;96997.63;5026120;28;20038;-71
2022/04/14 10:05:41;;;;;;;22.75;10.18;;;;;;;15.07;100.00;96999.22;5026648;28;20037;-70
2022/04/14 10:08:08;;;;;;;21.13;10.48;;;;;;;15.70;100.00;96995.38;5027502;28;20415;-70
2022/04/14 10:10:39;;;;;;;20.33;9.73;;;;;;;15.69;100.00;96998.34;5025711;28;20492;-70
2022/04/14 10:13:07;;;;;;;21.30;9.55;;;;;;;15.92;100.00;97003.22;5023307;28;20049;-71
2022/04/14 10:15:40;;;;;;;22.38;9.48;;;;;;;15.57;100.00;97002.09;5022962;28;20044;-70
2022/04/14 10:18:09;;;;;;;23.02;10.07;;;;;;;14.90;100.00;96999.44;5026750;28;20468;-71
2022/04/14 10:20:36;;;;;;;24.42;11.88;;;;;;;15.10;100.00;97007.63;5023507;28;20396;-71
2022/04/14 10:23:02;;;;;;;26.38;13.25;;;;;;;15.19;100.00;97002.53;5028156;28;20053;-72
2022/04/14 10:25:28;;;;;;;25.88;10.90;;;;;;;14.96;100.00;97006.47;5023786;28;20456;-70
2022/04/14 10:27:56;;;;;;;20.30;10.57;;;;;;;14.76;100.00;97013.38;5023878;28;20090;-70
2022/04/14 10:30:23;;;;;;;28.35;14.40;;;;;;;14.74;100.00;97007.44;5022116;28;20141;-70
2022/04/14 10:32:49;;;;;;;29.35;12.50;;;;;;;15.53;100.00;97005.56;5034671;28;20033;-70
2022/04/14 10:35:15;;;;;;;25.40;12.70;;;;;;;16.22;100.00;97001.59;5026447;28;20457;-71
2022/04/14 10:37:50;;;;;;;23.88;10.82;;;;;;;16.54;100.00;96996.69;5024674;28;20057;-70
2022/04/14 10:40:16;;;;;;;21.50;10.18;;;;;;;16.77;100.00;96992.63;5023509;28;20040;-70
2022/04/14 10:42:51;;;;;;;24.33;10.30;;;;;;;17.38;100.00;97000.50;5025448;28;20028;-71
2022/04/14 10:45:18;;;;;;;19.27;11.20;;;;;;;17.29;100.00;96991.34;5023116;28;20127;-70
2022/04/14 10:47:50;;;;;;;25.33;11.15;;;;;;;18.00;100.00;96999.03;5023963;28;20162;-71
2022/04/14 10:50:32;;;;;;;20.30;10.07;;;;;;;18.01;100.00;96997.13;5023560;28;20096;-71
2022/04/14 10:53:06;;;;;;;21.20;10.60;;;;;;;18.45;100.00;96985.38;5025003;28;20633;-70
2022/04/14 10:55:45;;;;;;;22.80;11.65;;;;;;;18.20;100.00;96994.53;5022949;28;20412;-70
2022/04/14 10:58:26;;;;;;;21.63;10.82;;;;;;;17.45;100.00;96995.59;5022783;28;20103;-70
2022/04/14 11:00:52;;;;;;;19.23;10.85;;;;;;;17.36;100.00;96993.75;5021609;28;20041;-71
2022/04/14 11:03:18;;;;;;;20.35;11.65;;;;;;;17.90;100.00;96982.88;5023428;28;20057;-71
2022/04/14 11:05:44;;;;;;;21.23;11.60;;;;;;;17.39;100.00;96993.19;5023581;28;20392;-70
2022/04/14 11:08:26;;;;;;;23.77;11.73;;;;;;;17.98;100.00;96989.59;5023547;28;20037;-70
2022/04/14 11:10:53;;;;;;;20.83;10.00;;;;;;;18.86;97.91;96988.50;5024247;28;20059;-70